Old Orchard Beach, Maine
Current Conditions -  °F | °C
As of 9:51 PM on Wednesday 26 Nov 2014 (Local Time) from KPWM Reporting Station
Light Snow Light Snow  
Wind Chill: -6°   Ceiling: 1400
Heat Index:   Visibility: 0.5mi
Dew Point: -1°   Wind: 22mph
Humidity: 89%   Direction: 10°N
Pressure: 29.79"   Gusts: 29mph
Location:  43.52°N, 70.38°W
Report Text: KPWM 270251Z 01019G25KT 1/2SM -SN FG SCT010 OVC014 01/M01 A2979 RMK AO2 PK WND 03028/0220 PRESFR SLP088 P0005 60028 T00111006 56054
Loading
Personal Weather Stations






























Interactive Weather Map New forecast layout! Learn more

10-Day Weather Forecast

Advertisements
Track Severe Weather on mobile